Mamfe, Cameroon
Current Conditions -  °F | °C
As of 10:00 AM on Friday 19 Dec 2014 (Local Time) from FKKD Reporting Station
Haze Haze  
Wind Chill: 84°   Ceiling: Unl
Heat Index: 96°   Visibility: 2.1mi
Dew Point: 79°   Wind: 0mph
Humidity: 84%   Direction: NA
Pressure: 29.91"   Gusts: NA
Location:  5.77°N, 9.29°E
Report Text: FKKD 190900Z 00000KT 3500 HZ SCT016 FEW020CB 29/26 Q1013 NOSIG
Loading
Personal Weather Stations






























Interactive Weather Map New forecast layout! Learn more

10-Day Weather Forecast

Advertisements
Track Severe Weather on mobile